Time;durP1;ratioP1;P1;durP2;ratioP2;P2;SDS_P1;SDS_P2;PMS_P1;PMS_P2;Temp;Humidity;BMP_temperature;BMP_pressure;BME280_temperature;BME280_humidity;BME280_pressure;Samples;Min_cycle;Max_cycle;Signal;HPM_P1;HPM_P2
2022/05/28 00:02:29;;;;;;;1.40;1.40;;;12.40;99.90;;;;;;6091879;29;20564;-67
2022/05/28 00:05:34;;;;;;;1.70;1.70;;;12.50;99.90;;;;;;6093920;29;20567;-67
2022/05/28 00:08:40;;;;;;;1.40;1.40;;;12.40;99.90;;;;;;6093155;29;20305;-68
2022/05/28 00:11:46;;;;;;;1.50;1.50;;;12.50;99.90;;;;;;6093879;29;20269;-67
2022/05/28 00:14:53;;;;;;;1.65;1.60;;;12.50;99.90;;;;;;6091784;29;20300;-67
2022/05/28 00:17:59;;;;;;;1.60;1.60;;;12.40;99.90;;;;;;6092653;29;20579;-67
2022/05/28 00:21:04;;;;;;;1.40;1.40;;;12.40;99.90;;;;;;6092135;29;20277;-68
2022/05/28 00:24:12;;;;;;;1.58;1.58;;;12.40;99.90;;;;;;6092677;29;20475;-68
2022/05/28 00:27:17;;;;;;;1.30;1.30;;;12.40;99.90;;;;;;6092790;29;20292;-68
2022/05/28 00:30:24;;;;;;;1.60;1.60;;;12.30;99.90;;;;;;6093633;29;20280;-67
2022/05/28 00:33:30;;;;;;;1.88;1.88;;;12.40;99.90;;;;;;6092934;29;20304;-67
2022/05/28 00:36:35;;;;;;;1.50;1.40;;;12.40;99.90;;;;;;6093560;29;20300;-67
2022/05/28 00:39:41;;;;;;;1.55;1.45;;;12.30;99.90;;;;;;6092965;29;20299;-66
2022/05/28 00:42:46;;;;;;;1.30;1.30;;;12.20;99.90;;;;;;6092603;29;20612;-67
2022/05/28 00:46:04;;;;;;;1.30;1.30;;;12.20;99.90;;;;;;6092774;29;20285;-69
2022/05/28 00:49:15;;;;;;;1.40;1.40;;;12.20;99.90;;;;;;6092537;29;20304;-67
2022/05/28 00:52:26;;;;;;;1.23;1.23;;;12.00;99.90;;;;;;6091298;29;20276;-67
2022/05/28 00:55:33;;;;;;;1.20;1.20;;;12.00;99.90;;;;;;6092917;29;20288;-67
2022/05/28 00:58:39;;;;;;;1.20;1.20;;;12.00;99.90;;;;;;6092374;29;20304;-69
2022/05/28 01:01:46;;;;;;;1.33;1.33;;;12.00;99.90;;;;;;6092628;29;20296;-68
2022/05/28 01:04:59;;;;;;;1.40;1.40;;;12.00;99.90;;;;;;6092279;29;20296;-67
2022/05/28 01:08:18;;;;;;;1.20;1.20;;;12.00;99.90;;;;;;6092158;29;20309;-67
2022/05/28 01:11:31;;;;;;;1.63;1.50;;;12.00;99.90;;;;;;6092580;29;20272;-68
2022/05/28 01:14:45;;;;;;;1.38;1.38;;;12.00;99.90;;;;;;6091585;29;20556;-67
2022/05/28 01:17:55;;;;;;;1.20;1.20;;;12.00;99.90;;;;;;6091661;29;20296;-68
2022/05/28 01:21:05;;;;;;;1.30;1.30;;;12.00;99.90;;;;;;6092423;29;20272;-67
2022/05/28 01:24:18;;;;;;;1.42;1.42;;;12.00;99.90;;;;;;6092149;29;20350;-67
2022/05/28 01:27:29;;;;;;;1.70;1.48;;;12.00;99.90;;;;;;6091736;29;20304;-68
2022/05/28 01:30:34;;;;;;;1.17;1.17;;;12.00;99.90;;;;;;6091967;29;20481;-68
2022/05/28 01:33:42;;;;;;;1.85;1.20;;;12.00;99.90;;;;;;6090298;29;20300;-67
2022/05/28 01:36:49;;;;;;;1.20;1.20;;;12.00;99.90;;;;;;6092223;29;20568;-67
2022/05/28 01:39:55;;;;;;;1.30;1.30;;;12.00;99.90;;;;;;6091843;29;20296;-67
2022/05/28 01:43:06;;;;;;;1.48;1.30;;;12.00;99.90;;;;;;6091432;29;20303;-68
2022/05/28 01:46:15;;;;;;;1.15;1.15;;;12.00;99.90;;;;;;6091759;29;20453;-68
2022/05/28 01:49:22;;;;;;;1.40;1.40;;;12.00;99.90;;;;;;6090187;29;20304;-67
2022/05/28 01:52:28;;;;;;;1.90;1.50;;;12.10;99.90;;;;;;6091775;29;20308;-67
2022/05/28 01:55:36;;;;;;;1.55;1.25;;;12.20;99.90;;;;;;6091642;29;20273;-67
2022/05/28 01:58:43;;;;;;;2.15;1.30;;;12.10;99.90;;;;;;6091060;29;20300;-67
2022/05/28 02:01:49;;;;;;;1.33;1.33;;;12.10;99.90;;;;;;6092028;29;20284;-67
2022/05/28 02:04:55;;;;;;;1.15;1.13;;;12.10;99.90;;;;;;6091634;29;20317;-67
2022/05/28 02:08:00;;;;;;;1.40;1.40;;;12.10;99.90;;;;;;6091158;29;20481;-67
2022/05/28 02:11:12;;;;;;;1.42;1.42;;;12.00;99.90;;;;;;6091397;29;20280;-67
2022/05/28 02:14:28;;;;;;;1.38;1.27;;;12.00;99.90;;;;;;6095616;29;20308;-67
2022/05/28 02:17:43;;;;;;;1.30;1.30;;;11.90;99.90;;;;;;6096035;29;20300;-67
2022/05/28 02:20:56;;;;;;;1.30;1.30;;;11.90;99.90;;;;;;6095992;29;20272;-67
2022/05/28 02:24:06;;;;;;;1.30;1.30;;;11.90;99.90;;;;;;6095560;29;20305;-67
2022/05/28 02:27:15;;;;;;;1.38;1.38;;;11.90;99.90;;;;;;6095674;29;20308;-68
2022/05/28 02:30:22;;;;;;;3.20;1.50;;;11.90;99.90;;;;;;6096075;29;20588;-67
2022/05/28 02:33:27;;;;;;;1.63;1.52;;;11.80;99.90;;;;;;6096621;29;20304;-67
2022/05/28 02:36:32;;;;;;;1.30;1.30;;;11.90;99.90;;;;;;6106986;29;20269;-66
2022/05/28 02:39:38;;;;;;;1.50;1.50;;;12.00;99.90;;;;;;6104564;29;20305;-68
2022/05/28 02:42:44;;;;;;;1.52;1.42;;;11.90;99.90;;;;;;6095533;29;20575;-68
2022/05/28 02:45:51;;;;;;;1.52;1.52;;;11.80;99.90;;;;;;6095667;29;20488;-67
2022/05/28 02:48:57;;;;;;;1.70;1.70;;;11.80;99.90;;;;;;6094235;29;20535;-66
2022/05/28 02:52:03;;;;;;;1.80;1.77;;;11.70;99.90;;;;;;6095811;29;20276;-67
2022/05/28 02:55:09;;;;;;;1.65;1.65;;;11.70;99.90;;;;;;6093299;29;20281;-68
2022/05/28 02:58:15;;;;;;;1.80;1.80;;;11.70;99.90;;;;;;6095046;29;20304;-68
2022/05/28 03:01:26;;;;;;;1.73;1.73;;;11.70;99.90;;;;;;6094801;29;20284;-68
2022/05/28 03:04:32;;;;;;;2.00;2.00;;;11.80;99.90;;;;;;6091172;29;20300;-66
2022/05/28 03:07:37;;;;;;;1.80;1.80;;;11.60;99.90;;;;;;6095021;29;20584;-67
2022/05/28 03:10:42;;;;;;;2.10;2.10;;;11.50;99.90;;;;;;6094188;29;20268;-68
2022/05/28 03:13:48;;;;;;;1.70;1.70;;;11.70;99.90;;;;;;6094708;29;20400;-67
2022/05/28 03:16:55;;;;;;;1.90;1.90;;;11.70;99.90;;;;;;6094904;29;20273;-68
2022/05/28 03:20:01;;;;;;;1.98;1.88;;;11.80;99.90;;;;;;6094658;29;20475;-67
2022/05/28 03:23:06;;;;;;;2.55;1.75;;;11.80;99.90;;;;;;6094112;29;20304;-69
2022/05/28 03:26:14;;;;;;;2.05;2.05;;;11.70;99.90;;;;;;6094805;29;20277;-67
2022/05/28 03:29:39;;;;;;;2.00;2.00;;;11.70;99.90;;;;;;6094108;29;20312;-67
2022/05/28 03:32:46;;;;;;;2.03;1.90;;;11.80;99.90;;;;;;6094179;29;20296;-67
2022/05/28 03:35:51;;;;;;;2.35;2.35;;;11.90;99.90;;;;;;6094199;29;20280;-67
2022/05/28 03:38:57;;;;;;;2.55;2.42;;;11.80;99.90;;;;;;6093512;29;20307;-69
2022/05/28 03:42:02;;;;;;;2.30;2.17;;;11.80;99.90;;;;;;6093873;29;20277;-67
2022/05/28 03:45:11;;;;;;;2.28;2.20;;;11.90;99.90;;;;;;6094484;29;20277;-69
2022/05/28 03:48:18;;;;;;;2.17;2.05;;;11.90;99.90;;;;;;6094133;29;20300;-68
2022/05/28 03:51:23;;;;;;;2.13;2.03;;;11.90;99.90;;;;;;6095110;29;20276;-67
2022/05/28 03:54:29;;;;;;;2.30;2.20;;;11.90;99.90;;;;;;6095950;29;20321;-67
2022/05/28 03:57:34;;;;;;;2.00;2.00;;;11.90;99.90;;;;;;6094107;29;20304;-68
2022/05/28 04:00:40;;;;;;;2.40;2.30;;;11.80;99.90;;;;;;6097212;29;20308;-66
2022/05/28 04:03:47;;;;;;;2.00;2.00;;;11.80;99.90;;;;;;6093241;29;20296;-67
2022/05/28 04:06:52;;;;;;;2.22;2.20;;;11.90;99.90;;;;;;6093456;29;20276;-68
2022/05/28 04:09:58;;;;;;;2.30;2.20;;;11.90;99.90;;;;;;6093835;29;20284;-67
2022/05/28 04:13:05;;;;;;;2.50;2.40;;;11.90;99.90;;;;;;6093142;29;20304;-67
2022/05/28 04:16:11;;;;;;;2.42;2.33;;;12.00;99.90;;;;;;6093990;29;20445;-67
2022/05/28 04:19:19;;;;;;;2.38;2.28;;;12.00;99.90;;;;;;6093171;29;20300;-68
2022/05/28 04:22:25;;;;;;;2.17;2.17;;;12.10;99.90;;;;;;6091638;29;20312;-68
2022/05/28 04:25:30;;;;;;;2.38;2.38;;;12.10;99.90;;;;;;6093245;29;20273;-67
2022/05/28 04:28:45;;;;;;;2.35;2.25;;;12.00;99.90;;;;;;6091319;29;20588;-67
2022/05/28 04:31:50;;;;;;;1.90;1.90;;;12.00;99.90;;;;;;6092404;29;20296;-68
2022/05/28 04:34:57;;;;;;;3.45;2.20;;;12.00;99.90;;;;;;6092462;29;20427;-67
2022/05/28 04:38:02;;;;;;;2.20;2.10;;;12.10;99.90;;;;;;6092585;29;20315;-67
2022/05/28 04:41:08;;;;;;;2.38;2.17;;;12.00;99.90;;;;;;6092581;29;20304;-69
2022/05/28 04:44:14;;;;;;;2.20;2.20;;;12.00;99.90;;;;;;6092435;29;20308;-67
2022/05/28 04:47:19;;;;;;;2.22;2.22;;;12.00;99.90;;;;;;6092005;29;20300;-67
2022/05/28 04:50:26;;;;;;;2.40;2.40;;;12.00;99.90;;;;;;6092590;29;20280;-67
2022/05/28 04:53:31;;;;;;;2.33;2.22;;;12.00;99.90;;;;;;6091965;29;20304;-67
2022/05/28 04:56:37;;;;;;;2.10;2.00;;;12.10;99.90;;;;;;6091384;29;20292;-67
2022/05/28 04:59:42;;;;;;;1.92;1.92;;;12.20;99.90;;;;;;6092086;29;20304;-67
2022/05/28 05:02:47;;;;;;;2.20;2.20;;;12.20;99.90;;;;;;6092150;29;20292;-68
2022/05/28 05:05:54;;;;;;;2.67;2.13;;;12.00;99.90;;;;;;6092642;29;20528;-68
2022/05/28 05:08:59;;;;;;;3.45;2.25;;;12.00;99.90;;;;;;6092215;29;20305;-67
2022/05/28 05:12:05;;;;;;;2.17;2.17;;;12.00;99.90;;;;;;6091815;29;20296;-68
2022/05/28 05:15:12;;;;;;;2.30;2.20;;;12.00;99.90;;;;;;6092701;29;20447;-68
2022/05/28 05:18:18;;;;;;;2.30;2.20;;;12.00;99.90;;;;;;6091646;29;20304;-68
2022/05/28 05:21:24;;;;;;;2.10;2.08;;;12.00;99.90;;;;;;6092294;29;20300;-68
2022/05/28 05:24:30;;;;;;;2.10;2.10;;;12.00;99.90;;;;;;6091867;29;20315;-68
2022/05/28 05:27:35;;;;;;;2.28;2.20;;;12.10;99.90;;;;;;6091708;29;20472;-67
2022/05/28 05:30:40;;;;;;;2.03;2.03;;;12.10;99.90;;;;;;6091955;29;20280;-68
2022/05/28 05:33:46;;;;;;;2.15;2.15;;;12.10;99.90;;;;;;6091727;29;20308;-68
2022/05/28 05:36:53;;;;;;;2.35;2.35;;;12.10;99.90;;;;;;6091482;29;20284;-67
2022/05/28 05:39:58;;;;;;;2.05;2.00;;;12.00;99.90;;;;;;6092307;29;20292;-68
2022/05/28 05:43:03;;;;;;;2.10;2.10;;;12.00;99.90;;;;;;6089962;29;20308;-68
2022/05/28 05:46:09;;;;;;;2.58;2.40;;;11.90;99.90;;;;;;6091896;29;20273;-68
2022/05/28 05:49:15;;;;;;;2.45;2.35;;;12.00;99.90;;;;;;6095863;29;20299;-68
2022/05/28 05:52:22;;;;;;;2.42;2.42;;;11.90;99.90;;;;;;6096583;29;20559;-68
2022/05/28 05:55:29;;;;;;;2.50;2.40;;;11.90;99.90;;;;;;6096729;29;20284;-68
2022/05/28 05:58:35;;;;;;;2.45;2.35;;;12.00;99.90;;;;;;6095995;29;20575;-67
2022/05/28 06:01:40;;;;;;;2.25;2.15;;;11.90;99.90;;;;;;6096265;29;20551;-69
2022/05/28 06:04:45;;;;;;;2.30;2.20;;;11.90;99.90;;;;;;6096460;29;20312;-68
2022/05/28 06:07:52;;;;;;;2.13;2.03;;;12.00;99.90;;;;;;6096327;29;20595;-67
2022/05/28 06:10:58;;;;;;;2.45;2.17;;;12.00;99.90;;;;;;6096476;29;20521;-68
2022/05/28 06:14:04;;;;;;;1.98;1.98;;;12.00;99.90;;;;;;6095790;29;20305;-67
2022/05/28 06:17:10;;;;;;;2.00;2.00;;;12.00;99.90;;;;;;6095715;29;20303;-69
2022/05/28 06:20:16;;;;;;;2.05;1.98;;;12.00;99.90;;;;;;6096464;29;20560;-68
2022/05/28 06:23:22;;;;;;;1.95;1.88;;;12.10;99.90;;;;;;6095967;29;20321;-68
2022/05/28 06:26:29;;;;;;;2.00;2.00;;;12.20;99.90;;;;;;6097355;29;20281;-67
2022/05/28 06:29:34;;;;;;;1.95;1.95;;;12.40;99.90;;;;;;6095818;29;20552;-68
2022/05/28 06:32:39;;;;;;;2.00;2.00;;;12.40;99.90;;;;;;6095421;29;20316;-67
2022/05/28 06:35:45;;;;;;;1.70;1.70;;;12.40;99.90;;;;;;6096204;29;20276;-67
2022/05/28 06:38:51;;;;;;;2.30;2.08;;;12.50;99.90;;;;;;6095359;29;20299;-68
2022/05/28 06:41:56;;;;;;;2.05;2.05;;;12.50;99.90;;;;;;6095287;29;20301;-68
2022/05/28 06:45:02;;;;;;;1.90;1.90;;;12.40;99.90;;;;;;6094678;29;20280;-67
2022/05/28 06:48:11;;;;;;;3.05;1.90;;;12.30;99.90;;;;;;6094997;29;20388;-67
2022/05/28 06:51:17;;;;;;;2.10;2.00;;;12.30;99.90;;;;;;6095426;29;20280;-68
2022/05/28 06:54:23;;;;;;;1.90;1.90;;;12.40;99.90;;;;;;6095395;29;20313;-67
2022/05/28 06:57:29;;;;;;;1.83;1.83;;;12.40;99.90;;;;;;6095008;29;20317;-67
2022/05/28 07:00:35;;;;;;;1.80;1.80;;;12.40;99.90;;;;;;6095508;29;20375;-68
2022/05/28 07:03:43;;;;;;;1.95;1.95;;;12.30;99.90;;;;;;6094845;29;20299;-68
2022/05/28 07:06:49;;;;;;;1.98;1.98;;;12.20;99.90;;;;;;6095240;29;20277;-68
2022/05/28 07:09:55;;;;;;;2.03;2.03;;;12.30;99.90;;;;;;6094015;29;20285;-68
2022/05/28 07:13:01;;;;;;;1.90;1.77;;;12.40;99.90;;;;;;6094589;29;20320;-67
2022/05/28 07:16:08;;;;;;;1.80;1.77;;;12.40;99.90;;;;;;6095450;29;20277;-68
2022/05/28 07:19:13;;;;;;;1.98;1.90;;;12.40;99.90;;;;;;6093550;29;20300;-67
2022/05/28 07:22:19;;;;;;;3.13;1.98;;;12.30;99.90;;;;;;6094812;29;20357;-67
2022/05/28 07:25:26;;;;;;;1.80;1.80;;;12.30;99.90;;;;;;6095072;29;20293;-69
2022/05/28 07:28:33;;;;;;;1.92;1.92;;;12.30;99.90;;;;;;6094163;29;20563;-68
2022/05/28 07:31:38;;;;;;;1.75;1.75;;;12.20;99.90;;;;;;6094826;29;20278;-68
2022/05/28 07:34:43;;;;;;;1.95;1.83;;;12.20;99.90;;;;;;6094784;29;20296;-68
2022/05/28 07:37:49;;;;;;;2.50;2.30;;;12.20;99.90;;;;;;6095029;29;20483;-69
2022/05/28 07:40:56;;;;;;;1.95;1.95;;;12.20;99.90;;;;;;6095203;29;20272;-68
2022/05/28 07:44:02;;;;;;;1.92;1.90;;;12.20;99.90;;;;;;6095090;29;20341;-68
2022/05/28 07:47:08;;;;;;;1.90;1.90;;;12.20;99.90;;;;;;6096213;29;20265;-68
2022/05/28 07:50:14;;;;;;;1.98;1.88;;;12.10;99.90;;;;;;6106027;29;20280;-67
2022/05/28 07:53:19;;;;;;;1.92;1.92;;;12.10;99.90;;;;;;6105516;29;20309;-69
2022/05/28 07:56:29;;;;;;;2.47;2.03;;;12.10;99.90;;;;;;6100184;29;20484;-68
2022/05/28 07:59:34;;;;;;;2.20;2.20;;;12.20;99.90;;;;;;6093617;29;20304;-68
2022/05/28 08:02:40;;;;;;;2.30;2.10;;;12.20;99.90;;;;;;6092895;29;20296;-67
2022/05/28 08:05:48;;;;;;;2.00;2.00;;;12.20;99.90;;;;;;6093893;29;20328;-69
2022/05/28 08:08:53;;;;;;;2.22;2.10;;;12.30;99.90;;;;;;6093444;29;20606;-68
2022/05/28 08:12:00;;;;;;;2.38;2.22;;;12.40;99.90;;;;;;6092474;29;20552;-68
2022/05/28 08:15:07;;;;;;;1.92;1.92;;;12.40;99.90;;;;;;6093772;29;20285;-68
2022/05/28 08:18:21;;;;;;;2.00;2.00;;;12.50;99.90;;;;;;6093123;29;20353;-68
2022/05/28 08:24:54;;;;;;;2.00;2.00;;;12.30;99.90;;;;;;6023811;29;20299;-67
2022/05/28 08:28:01;;;;;;;2.17;2.17;;;12.20;99.90;;;;;;6092385;29;20308;-68
2022/05/28 08:31:06;;;;;;;2.70;2.50;;;12.30;99.90;;;;;;6093537;29;20281;-67
2022/05/28 08:34:12;;;;;;;2.42;2.42;;;12.40;99.90;;;;;;6093118;29;20304;-68
2022/05/28 08:37:17;;;;;;;2.70;2.70;;;12.40;99.90;;;;;;6092536;29;20300;-68
2022/05/28 08:40:24;;;;;;;3.72;2.55;;;12.30;99.90;;;;;;6093045;29;20277;-68
2022/05/28 08:43:35;;;;;;;2.83;2.70;;;12.40;99.90;;;;;;6092411;29;20308;-67
2022/05/28 08:46:44;;;;;;;2.58;2.58;;;12.40;99.90;;;;;;6093047;29;20277;-68
2022/05/28 08:49:51;;;;;;;2.90;2.70;;;12.50;99.90;;;;;;6091826;29;20325;-68
2022/05/28 08:53:03;;;;;;;2.47;2.47;;;12.50;99.90;;;;;;6092942;29;20308;-67
2022/05/28 08:56:09;;;;;;;2.97;2.78;;;12.50;99.90;;;;;;6092518;29;20276;-67
2022/05/28 08:59:25;;;;;;;2.70;2.60;;;12.40;99.90;;;;;;6092524;29;20296;-68
2022/05/28 09:02:39;;;;;;;2.45;2.45;;;12.50;99.90;;;;;;6092054;29;20308;-67
2022/05/28 09:05:50;;;;;;;2.97;2.88;;;12.60;99.90;;;;;;6092480;29;20277;-69
2022/05/28 09:08:57;;;;;;;2.92;2.72;;;12.70;99.90;;;;;;6092140;29;20305;-67
2022/05/28 09:12:06;;;;;;;2.45;2.38;;;12.60;99.90;;;;;;6091928;29;20552;-68
2022/05/28 09:15:14;;;;;;;2.42;2.42;;;12.50;99.90;;;;;;6092409;29;20555;-67
2022/05/28 09:18:21;;;;;;;2.78;2.63;;;12.60;99.90;;;;;;6091709;29;20300;-67
2022/05/28 09:21:26;;;;;;;3.00;2.80;;;12.60;99.90;;;;;;6091515;29;20285;-67
2022/05/28 09:24:34;;;;;;;2.85;2.85;;;12.70;99.90;;;;;;6091955;29;20357;-68
2022/05/28 09:27:49;;;;;;;3.80;2.90;;;12.80;99.90;;;;;;6092011;29;20305;-68
2022/05/28 09:31:06;;;;;;;2.47;2.40;;;13.00;99.90;;;;;;6091740;29;20277;-69
2022/05/28 09:34:36;;;;;;;2.60;2.50;;;13.10;99.90;;;;;;6091816;29;20300;-67
2022/05/28 09:37:52;;;;;;;2.75;2.63;;;13.20;99.90;;;;;;6091499;29;20295;-67
2022/05/28 09:41:15;;;;;;;3.00;3.00;;;13.40;99.90;;;;;;6092051;29;20272;-68
2022/05/28 09:44:36;;;;;;;2.38;2.38;;;13.30;99.90;;;;;;6090027;29;20312;-67
2022/05/28 09:47:48;;;;;;;2.97;2.80;;;13.20;99.90;;;;;;6091553;29;20482;-67
2022/05/28 09:50:53;;;;;;;2.50;2.50;;;13.20;99.90;;;;;;6091922;29;20273;-68
2022/05/28 09:54:20;;;;;;;2.60;2.40;;;13.30;99.90;;;;;;6091550;29;20304;-68
2022/05/28 09:57:28;;;;;;;2.45;2.40;;;13.30;99.90;;;;;;6091476;29;20482;-67
2022/05/28 10:00:35;;;;;;;2.53;2.42;;;13.20;99.90;;;;;;6091746;29;20284;-68
2022/05/28 10:07:10;;;;;;;2.65;2.63;;;13.10;99.90;;;;;;6091460;29;20323;-67
2022/05/28 10:10:25;;;;;;;2.33;2.33;;;13.00;99.90;;;;;;6091609;29;20269;-68
2022/05/28 10:13:44;;;;;;;2.30;2.10;;;12.90;99.90;;;;;;6091776;29;20481;-68
2022/05/28 10:16:51;;;;;;;2.90;2.80;;;12.80;99.90;;;;;;6091903;29;20272;-67
2022/05/28 10:19:59;;;;;;;4.55;4.38;;;12.80;99.90;;;;;;6090914;29;20347;-68
2022/05/28 10:23:14;;;;;;;2.30;2.30;;;12.80;99.90;;;;;;6090632;29;20305;-67
2022/05/28 10:26:22;;;;;;;2.00;2.00;;;12.60;99.90;;;;;;6091393;29;20297;-68
2022/05/28 10:29:36;;;;;;;3.05;2.05;;;12.60;99.90;;;;;;6044283;29;20302;-68
2022/05/28 10:32:48;;;;;;;3.30;3.10;;;12.60;99.90;;;;;;6045653;29;20297;-69
2022/05/28 10:35:56;;;;;;;2.90;2.80;;;12.60;99.90;;;;;;6050952;29;20289;-67
2022/05/28 10:39:11;;;;;;;2.40;2.30;;;12.60;99.90;;;;;;6048846;29;20301;-67
2022/05/28 10:42:17;;;;;;;2.15;2.10;;;12.70;99.90;;;;;;6049656;29;20481;-68
2022/05/28 10:45:22;;;;;;;1.92;1.83;;;12.70;99.90;;;;;;6050069;29;20297;-67
2022/05/28 10:48:36;;;;;;;1.90;1.80;;;12.70;99.90;;;;;;6049340;29;20305;-67
2022/05/28 10:51:56;;;;;;;1.60;1.60;;;12.80;99.90;;;;;;6049650;29;20469;-68
2022/05/28 10:55:06;;;;;;;3.17;3.05;;;12.70;99.90;;;;;;6049205;29;20289;-67
2022/05/28 10:58:37;;;;;;;1.95;1.95;;;12.60;99.90;;;;;;6049110;29;20600;-68
2022/05/28 11:01:48;;;;;;;1.90;1.80;;;12.60;99.90;;;;;;6063689;29;20277;-68
2022/05/28 11:05:06;;;;;;;1.70;1.70;;;12.50;99.90;;;;;;6048775;29;20305;-68
2022/05/28 11:08:23;;;;;;;1.65;1.55;;;12.50;99.90;;;;;;6049090;29;20302;-68
2022/05/28 11:11:48;;;;;;;1.80;1.70;;;12.50;99.90;;;;;;6048154;29;20283;-68
2022/05/28 11:15:13;;;;;;;1.50;1.50;;;12.60;99.90;;;;;;6048710;29;20282;-68
2022/05/28 11:18:39;;;;;;;1.38;1.38;;;12.50;99.90;;;;;;6048636;29;20302;-67
2022/05/28 11:22:12;;;;;;;1.73;1.63;;;12.50;99.90;;;;;;6049024;29;20277;-67
2022/05/28 11:25:29;;;;;;;2.97;2.00;;;12.50;99.90;;;;;;6047335;29;20293;-67
2022/05/28 11:28:56;;;;;;;1.67;1.67;;;12.60;99.90;;;;;;6062937;29;20478;-68
2022/05/28 11:32:04;;;;;;;1.25;1.25;;;12.70;99.90;;;;;;6070894;29;20428;-68
2022/05/28 11:35:18;;;;;;;2.65;2.42;;;12.60;99.90;;;;;;6071199;29;20357;-67
2022/05/28 11:38:33;;;;;;;2.38;2.38;;;12.40;99.90;;;;;;6072094;29;20301;-67
2022/05/28 11:41:48;;;;;;;2.15;2.10;;;12.20;99.90;;;;;;6073384;29;20274;-68
2022/05/28 11:44:56;;;;;;;1.42;1.42;;;12.20;99.90;;;;;;6069117;29;20309;-67
2022/05/28 11:48:05;;;;;;;1.15;1.15;;;12.20;99.90;;;;;;6070856;29;20299;-67
2022/05/28 11:51:28;;;;;;;1.13;1.00;;;12.30;99.90;;;;;;6070101;29;20273;-67
2022/05/28 11:54:38;;;;;;;1.33;1.33;;;12.40;99.90;;;;;;6070627;29;20301;-66
2022/05/28 11:57:51;;;;;;;1.08;1.08;;;12.50;99.90;;;;;;6070192;29;20317;-68
2022/05/28 12:01:00;;;;;;;1.23;1.23;;;12.50;99.90;;;;;;6071141;29;20273;-68
2022/05/28 12:04:07;;;;;;;1.90;1.80;;;12.50;99.90;;;;;;6070290;29;20301;-67
2022/05/28 12:07:23;;;;;;;1.55;1.45;;;12.50;99.90;;;;;;6070248;29;20582;-67
2022/05/28 12:10:48;;;;;;;1.60;1.50;;;12.60;99.90;;;;;;6079359;29;20269;-67
2022/05/28 12:13:57;;;;;;;2.63;2.53;;;12.30;99.90;;;;;;6093849;29;20300;-67
2022/05/28 12:17:08;;;;;;;4.05;3.70;;;12.10;99.90;;;;;;6093878;29;20289;-68
2022/05/28 12:20:14;;;;;;;1.40;1.40;;;12.30;99.90;;;;;;6092586;29;20276;-67
2022/05/28 12:23:31;;;;;;;1.40;1.40;;;12.30;99.90;;;;;;6093677;29;20312;-69
2022/05/28 12:26:56;;;;;;;1.20;0.98;;;12.30;99.90;;;;;;6093166;29;20295;-68
2022/05/28 12:30:04;;;;;;;2.28;2.20;;;12.30;99.90;;;;;;6092669;29;20281;-67
2022/05/28 12:33:25;;;;;;;1.80;1.80;;;12.40;99.90;;;;;;6093224;29;20320;-68
2022/05/28 12:36:40;;;;;;;1.13;1.13;;;12.20;99.90;;;;;;6093336;29;20286;-68
2022/05/28 12:39:56;;;;;;;1.65;1.65;;;12.30;99.90;;;;;;6092685;29;20305;-67
2022/05/28 12:43:14;;;;;;;1.48;1.48;;;12.40;99.90;;;;;;6093188;29;20300;-67
2022/05/28 12:46:35;;;;;;;2.15;1.23;;;12.40;99.90;;;;;;6093474;29;20300;-68
2022/05/28 12:49:49;;;;;;;1.60;1.50;;;12.40;99.90;;;;;;6091632;29;20304;-67
2022/05/28 12:52:59;;;;;;;1.58;1.58;;;12.40;99.90;;;;;;6092771;29;20320;-68
2022/05/28 12:56:09;;;;;;;2.47;2.38;;;12.40;99.90;;;;;;6093268;29;20281;-67
2022/05/28 12:59:30;;;;;;;1.52;1.52;;;12.40;99.90;;;;;;6092945;29;20305;-68
2022/05/28 13:02:41;;;;;;;1.67;1.60;;;12.50;99.90;;;;;;6093586;29;20292;-67
2022/05/28 13:05:50;;;;;;;1.35;1.35;;;12.50;99.90;;;;;;6095212;29;20569;-70
2022/05/28 13:09:05;;;;;;;1.20;1.20;;;12.40;99.90;;;;;;6102990;29;20296;-65
2022/05/28 13:12:21;;;;;;;1.42;1.42;;;12.30;99.90;;;;;;6106894;29;20312;-68
2022/05/28 13:16:11;;;;;;;1.10;1.10;;;12.30;99.90;;;;;;6099840;29;20534;-67
2022/05/28 13:19:37;;;;;;;0.90;0.90;;;12.20;99.90;;;;;;6089723;29;20305;-68
2022/05/28 13:23:09;;;;;;;4.43;2.20;;;12.30;99.90;;;;;;6092294;29;20375;-66
2022/05/28 13:26:35;;;;;;;2.00;1.90;;;12.40;99.90;;;;;;6092216;29;20296;-70
2022/05/28 13:29:58;;;;;;;1.88;1.80;;;12.30;99.90;;;;;;6092171;29;20312;-68
2022/05/28 13:33:07;;;;;;;1.40;1.40;;;12.40;99.90;;;;;;6090591;29;20320;-67
2022/05/28 13:36:16;;;;;;;1.20;1.20;;;12.40;99.90;;;;;;6091299;29;20280;-68
2022/05/28 13:39:22;;;;;;;1.30;1.30;;;12.50;99.90;;;;;;6091982;29;20299;-68
2022/05/28 13:42:29;;;;;;;1.67;1.58;;;12.40;99.90;;;;;;6091961;29;20301;-67
2022/05/28 13:45:37;;;;;;;1.70;1.70;;;12.50;99.90;;;;;;6092135;29;20359;-67
2022/05/28 13:48:46;;;;;;;1.70;1.70;;;12.50;99.90;;;;;;6091658;29;20304;-67
2022/05/28 13:51:56;;;;;;;1.20;1.20;;;12.60;99.90;;;;;;6092171;29;20447;-67
2022/05/28 13:55:09;;;;;;;1.13;1.13;;;12.60;99.90;;;;;;6092199;29;20293;-67
2022/05/28 13:58:20;;;;;;;1.00;1.00;;;12.60;99.90;;;;;;6090602;29;20308;-68
2022/05/28 14:01:28;;;;;;;1.10;1.10;;;12.60;99.90;;;;;;6092589;29;20551;-68
2022/05/28 14:04:34;;;;;;;1.10;1.00;;;12.60;99.90;;;;;;6092152;29;20296;-68
2022/05/28 14:07:43;;;;;;;1.40;1.40;;;12.50;99.90;;;;;;6090940;29;20404;-68
2022/05/28 14:10:49;;;;;;;1.20;1.20;;;12.50;99.90;;;;;;6096857;29;20512;-66
2022/05/28 14:13:58;;;;;;;1.40;1.40;;;12.50;99.90;;;;;;6096374;29;20300;-68
2022/05/28 14:17:06;;;;;;;1.25;1.25;;;12.50;99.90;;;;;;6095897;29;20600;-68
2022/05/28 14:20:22;;;;;;;1.70;1.70;;;12.60;99.90;;;;;;6096785;29;20276;-68
2022/05/28 14:23:33;;;;;;;1.30;1.30;;;12.60;99.90;;;;;;6095049;29;20305;-67
2022/05/28 14:26:38;;;;;;;1.23;1.23;;;12.60;99.90;;;;;;6095898;29;20559;-68
2022/05/28 14:29:46;;;;;;;1.45;1.45;;;12.50;99.90;;;;;;6096349;29;20304;-67
2022/05/28 14:32:51;;;;;;;2.00;2.00;;;12.60;99.90;;;;;;6095991;29;20299;-69
2022/05/28 14:36:12;;;;;;;1.63;1.63;;;12.40;99.90;;;;;;6096450;29;20213;-68
2022/05/28 14:39:21;;;;;;;2.00;2.00;;;12.50;99.90;;;;;;6095636;29;20304;-69
2022/05/28 14:42:31;;;;;;;2.58;2.17;;;12.40;99.90;;;;;;6095850;29;20296;-68
2022/05/28 14:45:40;;;;;;;1.50;1.50;;;12.30;99.90;;;;;;6094748;29;20272;-68
2022/05/28 14:48:46;;;;;;;2.63;2.38;;;12.50;99.90;;;;;;6095617;29;20329;-68
2022/05/28 14:51:58;;;;;;;2.03;1.92;;;12.60;99.90;;;;;;6095056;29;20285;-68
2022/05/28 14:55:08;;;;;;;2.03;2.03;;;12.60;99.90;;;;;;6095593;29;20384;-68
2022/05/28 14:58:19;;;;;;;1.40;1.40;;;12.60;99.90;;;;;;6094854;29;20304;-68
2022/05/28 15:01:28;;;;;;;1.50;1.50;;;12.60;99.90;;;;;;6095721;29;20272;-69
2022/05/28 15:04:34;;;;;;;1.20;1.20;;;12.60;99.90;;;;;;6094851;29;20316;-67
2022/05/28 15:07:51;;;;;;;1.20;1.20;;;12.50;99.90;;;;;;6094194;29;20602;-68
2022/05/28 15:11:00;;;;;;;1.20;1.20;;;12.70;99.90;;;;;;6095700;29;20268;-68
2022/05/28 15:14:11;;;;;;;1.60;1.60;;;12.70;99.90;;;;;;6094917;29;20308;-69
2022/05/28 15:17:17;;;;;;;1.77;1.77;;;12.70;99.90;;;;;;6095000;29;20300;-68
2022/05/28 15:20:22;;;;;;;1.60;1.60;;;12.70;99.90;;;;;;6094987;29;20449;-67
2022/05/28 15:23:30;;;;;;;1.60;1.60;;;12.70;99.90;;;;;;6095204;29;20305;-67
2022/05/28 15:26:40;;;;;;;1.80;1.70;;;12.60;99.90;;;;;;6094931;29;20277;-68
2022/05/28 15:29:45;;;;;;;1.65;1.65;;;12.60;99.90;;;;;;6094851;29;20312;-68
2022/05/28 15:32:51;;;;;;;2.63;2.47;;;12.80;99.90;;;;;;6095991;29;20308;-67
2022/05/28 15:39:19;;;;;;;1.50;1.50;;;12.80;99.90;;;;;;6094835;29;20313;-69
2022/05/28 15:42:29;;;;;;;3.30;3.00;;;12.90;99.90;;;;;;6095017;29;20300;-68
2022/05/28 15:45:36;;;;;;;1.80;1.80;;;12.80;99.90;;;;;;6093794;29;20435;-69
2022/05/28 15:48:42;;;;;;;1.60;1.60;;;12.50;99.90;;;;;;6094839;29;20305;-67
2022/05/28 15:51:47;;;;;;;1.80;1.80;;;12.70;99.90;;;;;;6095763;29;20272;-68
2022/05/28 15:54:53;;;;;;;1.70;1.70;;;12.70;99.90;;;;;;6093863;29;20285;-70
2022/05/28 15:58:03;;;;;;;1.70;1.70;;;12.80;99.90;;;;;;6094487;29;20485;-67
2022/05/28 16:01:14;;;;;;;1.80;1.80;;;12.70;99.90;;;;;;6094132;29;20272;-69
2022/05/28 16:04:19;;;;;;;1.70;1.70;;;12.70;99.90;;;;;;6094068;29;20296;-68
2022/05/28 16:07:25;;;;;;;1.90;1.90;;;12.60;99.90;;;;;;6094148;29;20300;-70
2022/05/28 16:10:30;;;;;;;2.20;2.20;;;12.60;99.90;;;;;;6094299;29;20292;-68
2022/05/28 16:13:38;;;;;;;2.50;2.47;;;12.60;99.90;;;;;;6093605;29;20305;-68
2022/05/28 16:16:43;;;;;;;3.55;3.35;;;12.60;99.90;;;;;;6093910;29;20470;-69
2022/05/28 16:19:49;;;;;;;3.72;3.50;;;12.70;99.90;;;;;;6093766;29;20300;-69
2022/05/28 16:22:54;;;;;;;2.15;2.15;;;12.70;99.90;;;;;;6093268;29;20305;-69
2022/05/28 16:26:01;;;;;;;2.20;2.20;;;12.80;99.90;;;;;;6094049;29;20280;-68
2022/05/28 16:29:11;;;;;;;2.50;2.40;;;12.70;99.90;;;;;;6093031;29;20304;-67
2022/05/28 16:32:17;;;;;;;2.58;2.58;;;12.60;99.90;;;;;;6092582;29;20296;-68
2022/05/28 16:35:22;;;;;;;2.20;2.10;;;12.60;99.90;;;;;;6093456;29;20573;-68
2022/05/28 16:38:28;;;;;;;4.00;3.80;;;12.60;99.90;;;;;;6093183;29;20615;-66